createdAt,value
2023-05-13T00:01:39.202Z,11.80
2023-05-13T00:04:10.225Z,11.80
2023-05-13T00:06:39.644Z,11.90
2023-05-13T00:09:08.837Z,12.00
2023-05-13T00:11:37.861Z,12.00
2023-05-13T00:14:09.821Z,12.10
2023-05-13T00:16:39.666Z,12.20
2023-05-13T00:19:10.534Z,12.30
2023-05-13T00:21:39.990Z,12.40
2023-05-13T00:24:09.358Z,12.50
2023-05-13T00:26:38.302Z,12.60
2023-05-13T00:29:07.770Z,12.60
2023-05-13T00:31:37.946Z,12.70
2023-05-13T00:34:07.211Z,12.80
2023-05-13T00:36:38.042Z,12.90
2023-05-13T00:39:06.946Z,12.90
2023-05-13T00:41:36.037Z,13.00
2023-05-13T00:44:05.704Z,13.00
2023-05-13T00:46:35.345Z,13.10
2023-05-13T00:49:06.099Z,13.10
2023-05-13T00:51:37.807Z,13.00
2023-05-13T00:54:08.386Z,13.00
2023-05-13T00:56:39.667Z,12.90
2023-05-13T00:59:08.244Z,12.90
2023-05-13T01:01:46.590Z,12.80
2023-05-13T01:04:21.930Z,12.70
2023-05-13T01:07:01.625Z,12.70
2023-05-13T01:09:40.279Z,12.60
2023-05-13T01:12:11.939Z,12.60
2023-05-13T01:14:49.053Z,12.50
2023-05-13T01:17:24.060Z,12.50
2023-05-13T01:19:57.155Z,12.40
2023-05-13T01:22:27.879Z,12.30
2023-05-13T01:24:56.917Z,12.30
2023-05-13T01:27:26.000Z,12.20
2023-05-13T01:29:56.060Z,12.20
2023-05-13T01:32:29.584Z,12.10
2023-05-13T01:34:58.967Z,12.10
2023-05-13T01:37:29.719Z,12.00
2023-05-13T01:39:58.550Z,12.00
2023-05-13T01:42:30.854Z,11.90
2023-05-13T01:44:59.663Z,11.90
2023-05-13T01:47:28.933Z,11.90
2023-05-13T01:49:58.264Z,11.80
2023-05-13T01:52:28.239Z,11.80
2023-05-13T01:54:56.744Z,11.80
2023-05-13T01:57:25.281Z,11.70
2023-05-13T01:59:54.129Z,11.70
2023-05-13T02:02:22.489Z,11.60
2023-05-13T02:04:51.040Z,11.60
2023-05-13T02:07:19.889Z,11.50
2023-05-13T02:09:50.866Z,11.50
2023-05-13T02:12:19.415Z,11.40
2023-05-13T02:14:47.993Z,11.40
2023-05-13T02:17:16.562Z,11.30
2023-05-13T02:19:45.288Z,11.30
2023-05-13T02:22:13.963Z,11.30
2023-05-13T02:24:43.021Z,11.20
2023-05-13T02:27:16.238Z,11.20
2023-05-13T02:29:46.172Z,11.20
2023-05-13T02:32:14.941Z,11.20
2023-05-13T02:34:43.509Z,11.20
2023-05-13T02:37:12.004Z,11.10
2023-05-13T02:39:48.724Z,11.10
2023-05-13T02:42:19.148Z,11.10
2023-05-13T02:44:48.584Z,11.10
2023-05-13T02:47:17.545Z,11.10
2023-05-13T02:49:46.106Z,11.10
2023-05-13T02:52:14.680Z,11.10
2023-05-13T02:54:43.344Z,11.10
2023-05-13T02:57:14.295Z,11.10
2023-05-13T02:59:45.837Z,11.10
2023-05-13T03:02:14.439Z,11.10
2023-05-13T03:04:42.989Z,11.10
2023-05-13T03:07:11.563Z,11.10
2023-05-13T03:09:42.303Z,11.10
2023-05-13T03:12:11.033Z,11.10
2023-05-13T03:14:40.580Z,11.10
2023-05-13T03:17:10.812Z,11.10
2023-05-13T03:19:40.270Z,11.10
2023-05-13T03:22:08.905Z,11.10
2023-05-13T03:24:37.577Z,11.00
2023-05-13T03:27:06.481Z,11.00
2023-05-13T03:29:35.254Z,11.00
2023-05-13T03:32:06.489Z,10.90
2023-05-13T03:34:37.991Z,10.90
2023-05-13T03:37:06.770Z,10.80
2023-05-13T03:39:35.242Z,10.80
2023-05-13T03:42:04.044Z,10.80
2023-05-13T03:44:32.738Z,10.70
2023-05-13T03:47:01.680Z,10.70
2023-05-13T03:49:30.831Z,10.70
2023-05-13T03:52:00.782Z,10.60
2023-05-13T03:54:29.976Z,10.50
2023-05-13T03:56:58.424Z,10.50
2023-05-13T03:59:26.860Z,10.50
2023-05-13T04:01:55.472Z,10.50
2023-05-13T04:04:24.226Z,10.40
2023-05-13T04:06:52.797Z,10.40
2023-05-13T04:09:22.833Z,10.40
2023-05-13T04:11:53.678Z,10.40
2023-05-13T04:14:22.101Z,10.40
2023-05-13T04:16:50.574Z,10.40
2023-05-13T04:19:19.135Z,10.50
2023-05-13T04:21:52.272Z,10.50
2023-05-13T04:24:24.648Z,10.50
2023-05-13T04:26:53.336Z,10.50
2023-05-13T04:29:22.132Z,10.60
2023-05-13T04:31:50.832Z,10.60
2023-05-13T04:34:19.916Z,10.60
2023-05-13T04:36:48.886Z,10.60
2023-05-13T04:39:17.403Z,10.70
2023-05-13T04:41:47.770Z,10.70
2023-05-13T04:44:18.924Z,10.80
2023-05-13T04:46:47.386Z,10.90
2023-05-13T04:49:15.802Z,10.90
2023-05-13T04:51:44.486Z,11.00
2023-05-13T04:54:14.862Z,11.00
2023-05-13T04:56:43.401Z,11.10
2023-05-13T04:59:13.144Z,11.10
2023-05-13T05:01:44.660Z,11.20
2023-05-13T05:04:13.907Z,11.30
2023-05-13T05:06:42.850Z,11.30
2023-05-13T05:09:11.507Z,11.40
2023-05-13T05:11:40.359Z,11.50
2023-05-13T05:14:15.371Z,11.50
2023-05-13T05:16:43.933Z,11.70
2023-05-13T05:19:13.154Z,11.70
2023-05-13T05:21:42.121Z,11.80
2023-05-13T05:24:11.338Z,11.90
2023-05-13T05:26:41.134Z,11.90
2023-05-13T05:29:11.431Z,12.00
2023-05-13T05:31:48.528Z,12.00
2023-05-13T05:34:17.445Z,12.00
2023-05-13T05:36:46.318Z,12.10
2023-05-13T05:39:20.940Z,12.10
2023-05-13T05:41:49.615Z,12.10
2023-05-13T05:44:19.416Z,12.20
2023-05-13T05:46:49.664Z,12.20
2023-05-13T05:49:19.006Z,12.30
2023-05-13T05:51:52.306Z,12.30
2023-05-13T05:54:22.201Z,12.30
2023-05-13T05:56:50.662Z,12.40
2023-05-13T05:59:19.353Z,12.50
2023-05-13T06:01:49.489Z,12.50
2023-05-13T06:04:18.820Z,12.60
2023-05-13T06:06:47.443Z,12.70
2023-05-13T06:09:15.948Z,12.70
2023-05-13T06:11:44.341Z,12.80
2023-05-13T06:14:12.733Z,12.80
2023-05-13T06:16:41.150Z,12.90
2023-05-13T06:19:11.290Z,13.00
2023-05-13T06:21:43.177Z,13.00
2023-05-13T06:24:11.629Z,13.10
2023-05-13T06:26:42.077Z,13.20
2023-05-13T06:29:10.510Z,13.30
2023-05-13T06:31:39.001Z,13.30
2023-05-13T06:34:07.563Z,13.40
2023-05-13T06:36:37.507Z,13.40
2023-05-13T06:39:08.420Z,13.50
2023-05-13T06:41:38.064Z,13.50
2023-05-13T06:44:11.216Z,13.50
2023-05-13T06:46:42.531Z,13.50
2023-05-13T06:49:11.332Z,13.50
2023-05-13T06:51:41.259Z,13.50
2023-05-13T06:54:09.858Z,13.50
2023-05-13T06:56:38.521Z,13.60
2023-05-13T06:59:06.980Z,13.70
2023-05-13T07:01:35.630Z,13.70
2023-05-13T07:04:04.597Z,13.80
2023-05-13T07:06:33.016Z,13.90
2023-05-13T07:09:05.379Z,13.90
2023-05-13T07:11:36.687Z,14.00
2023-05-13T07:14:05.146Z,14.00
2023-05-13T07:16:33.682Z,14.00
2023-05-13T07:19:02.119Z,14.00
2023-05-13T07:21:31.344Z,14.00
2023-05-13T07:23:59.773Z,14.00
2023-05-13T07:26:31.791Z,14.10
2023-05-13T07:29:09.549Z,14.10
2023-05-13T07:31:38.503Z,14.20
2023-05-13T07:34:10.265Z,14.30
2023-05-13T07:36:38.778Z,14.40
2023-05-13T07:39:09.367Z,14.40
2023-05-13T07:41:42.060Z,14.40
2023-05-13T07:44:13.165Z,14.50
2023-05-13T07:46:41.627Z,14.60
2023-05-13T07:49:10.197Z,14.70
2023-05-13T07:51:38.737Z,14.70
2023-05-13T07:54:07.229Z,14.80
2023-05-13T07:56:35.945Z,14.90
2023-05-13T07:59:05.801Z,15.00
2023-05-13T08:01:38.925Z,15.30
2023-05-13T08:04:07.903Z,15.40
2023-05-13T08:06:37.178Z,15.60
2023-05-13T08:09:06.596Z,15.80
2023-05-13T08:11:35.026Z,16.00
2023-05-13T08:14:03.304Z,16.10
2023-05-13T08:16:35.468Z,16.30
2023-05-13T08:19:04.159Z,16.40
2023-05-13T08:21:32.883Z,16.60
2023-05-13T08:24:01.521Z,16.70
2023-05-13T08:26:29.983Z,16.80
2023-05-13T08:29:00.667Z,16.90
2023-05-13T08:31:32.269Z,16.90
2023-05-13T08:34:02.147Z,17.00
2023-05-13T08:36:30.522Z,17.10
2023-05-13T08:38:59.131Z,17.10
2023-05-13T08:41:31.826Z,17.30
2023-05-13T08:44:03.144Z,17.50
2023-05-13T08:46:34.040Z,17.70
2023-05-13T08:49:04.987Z,18.00
2023-05-13T08:51:35.941Z,18.30
2023-05-13T08:54:11.648Z,18.50
2023-05-13T08:56:41.313Z,18.60
2023-05-13T08:59:09.964Z,18.60
2023-05-13T09:01:38.947Z,18.60
2023-05-13T09:04:11.684Z,18.60
2023-05-13T09:06:40.079Z,18.50
2023-05-13T09:09:09.805Z,18.50
2023-05-13T09:11:41.491Z,18.50
2023-05-13T09:14:12.206Z,18.70
2023-05-13T09:16:41.166Z,18.80
2023-05-13T09:19:11.510Z,18.90
2023-05-13T09:21:40.206Z,19.00
2023-05-13T09:24:11.592Z,19.20
2023-05-13T09:26:41.228Z,19.40
2023-05-13T09:29:20.721Z,19.30
2023-05-13T09:31:51.435Z,19.30
2023-05-13T09:34:29.345Z,19.50
2023-05-13T09:36:59.488Z,19.80
2023-05-13T09:39:29.484Z,20.00
2023-05-13T09:41:58.940Z,20.30
2023-05-13T09:44:29.163Z,20.70
2023-05-13T09:46:58.023Z,21.00
2023-05-13T09:49:29.686Z,21.30
2023-05-13T09:51:58.368Z,21.60
2023-05-13T09:54:28.688Z,21.80
2023-05-13T09:57:01.244Z,22.00
2023-05-13T09:59:33.631Z,22.00
2023-05-13T10:02:05.369Z,21.80
2023-05-13T10:04:35.568Z,21.60
2023-05-13T10:07:05.581Z,21.50
2023-05-13T10:09:37.393Z,21.40
2023-05-13T10:12:09.310Z,21.50
2023-05-13T10:14:44.489Z,21.60
2023-05-13T10:17:13.597Z,21.60
2023-05-13T10:19:44.017Z,21.60
2023-05-13T10:22:14.015Z,21.70
2023-05-13T10:24:43.507Z,21.80
2023-05-13T10:27:13.525Z,22.00
2023-05-13T10:29:44.521Z,22.20
2023-05-13T10:32:14.101Z,22.30
2023-05-13T10:34:48.148Z,22.50
2023-05-13T10:37:35.622Z,22.60
2023-05-13T10:40:21.833Z,22.80
2023-05-13T10:43:00.759Z,23.00
2023-05-13T10:45:29.642Z,23.30
2023-05-13T10:47:58.460Z,23.60
2023-05-13T10:50:28.936Z,23.70
2023-05-13T10:52:58.787Z,23.80
2023-05-13T10:55:29.455Z,23.80
2023-05-13T10:58:12.243Z,23.70
2023-05-13T11:00:42.163Z,23.70
2023-05-13T11:03:15.871Z,23.70
2023-05-13T11:06:04.416Z,23.60
2023-05-13T11:08:40.495Z,23.80
2023-05-13T11:11:27.590Z,24.20
2023-05-13T11:13:57.647Z,25.00
2023-05-13T11:16:26.651Z,26.00
2023-05-13T11:18:55.573Z,27.00
2023-05-13T11:21:39.833Z,27.50
2023-05-13T11:24:09.503Z,27.90
2023-05-13T11:26:49.615Z,28.50
2023-05-13T11:29:30.728Z,29.50
2023-05-13T11:32:01.021Z,30.50
2023-05-13T11:34:30.423Z,31.10
2023-05-13T11:37:11.004Z,30.90
2023-05-13T11:39:41.424Z,30.40
2023-05-13T11:42:11.299Z,29.90
2023-05-13T11:44:46.986Z,29.60
2023-05-13T11:47:15.863Z,29.40
2023-05-13T11:49:46.537Z,29.70
2023-05-13T11:52:18.341Z,30.20
2023-05-13T11:54:49.148Z,30.70
2023-05-13T11:57:22.827Z,31.20
2023-05-13T11:59:56.415Z,31.80
2023-05-13T12:02:26.798Z,32.50
2023-05-13T12:04:55.751Z,32.90
2023-05-13T12:07:27.115Z,32.70
2023-05-13T12:10:00.723Z,31.70
2023-05-13T12:12:31.509Z,30.80
2023-05-13T12:15:10.680Z,30.00
2023-05-13T12:17:39.610Z,29.00
2023-05-13T12:20:13.993Z,28.30
2023-05-13T12:22:57.094Z,28.10
2023-05-13T12:25:41.988Z,28.50
2023-05-13T12:28:13.237Z,29.10
2023-05-13T12:30:43.737Z,29.70
2023-05-13T12:33:16.709Z,30.20
2023-05-13T12:35:45.862Z,30.60
2023-05-13T12:38:19.685Z,30.90
2023-05-13T12:40:49.575Z,31.10
2023-05-13T12:43:20.336Z,31.60
2023-05-13T12:45:53.735Z,32.20
2023-05-13T12:48:25.619Z,32.60
2023-05-13T12:50:54.138Z,33.00
2023-05-13T12:53:23.965Z,32.90
2023-05-13T12:55:53.019Z,32.70
2023-05-13T12:58:24.005Z,32.60
2023-05-13T13:00:52.591Z,32.80
2023-05-13T13:03:24.763Z,33.50
2023-05-13T13:05:55.632Z,33.70
2023-05-13T13:08:25.838Z,33.80
2023-05-13T13:10:54.269Z,33.40
2023-05-13T13:13:22.692Z,32.90
2023-05-13T13:15:51.079Z,32.20
2023-05-13T13:18:20.100Z,31.50
2023-05-13T13:20:48.653Z,31.00
2023-05-13T13:23:17.281Z,30.60
2023-05-13T13:25:47.144Z,30.00
2023-05-13T13:28:15.958Z,29.60
2023-05-13T13:30:47.010Z,29.60
2023-05-13T13:33:16.816Z,30.20
2023-05-13T13:35:47.084Z,31.40
2023-05-13T13:38:16.113Z,32.60
2023-05-13T13:40:45.988Z,33.90
2023-05-13T13:43:14.513Z,34.90
2023-05-13T13:45:43.146Z,35.80
2023-05-13T13:48:11.779Z,36.60
2023-05-13T13:50:40.272Z,37.10
2023-05-13T13:53:09.814Z,37.30
2023-05-13T13:55:38.248Z,37.60
2023-05-13T13:58:08.218Z,38.20
2023-05-13T14:00:36.687Z,38.80
2023-05-13T14:03:05.237Z,39.40
2023-05-13T14:05:33.877Z,39.90
2023-05-13T14:08:02.287Z,40.00
2023-05-13T14:10:31.074Z,39.90
2023-05-13T14:12:59.778Z,39.80
2023-05-13T14:15:30.873Z,39.80
2023-05-13T14:17:59.436Z,40.10
2023-05-13T14:20:29.185Z,40.50
2023-05-13T14:22:58.016Z,40.80
2023-05-13T14:25:26.583Z,41.00
2023-05-13T14:27:55.054Z,40.80
2023-05-13T14:30:24.168Z,40.50
2023-05-13T14:32:54.373Z,40.20
2023-05-13T14:35:23.010Z,39.90
2023-05-13T14:37:51.448Z,39.00
2023-05-13T14:40:20.356Z,37.80
2023-05-13T14:42:49.498Z,36.20
2023-05-13T14:45:18.736Z,34.60
2023-05-13T14:47:47.506Z,33.10
2023-05-13T14:50:17.460Z,31.80
2023-05-13T14:52:46.318Z,30.70
2023-05-13T14:55:15.065Z,29.90
2023-05-13T14:57:43.598Z,29.70
2023-05-13T15:00:13.149Z,30.10
2023-05-13T15:02:41.674Z,30.70
2023-05-13T15:05:11.279Z,31.40
2023-05-13T15:07:43.764Z,32.00
2023-05-13T15:10:12.721Z,32.80
2023-05-13T15:12:41.715Z,33.90
2023-05-13T15:15:12.071Z,35.10
2023-05-13T15:17:41.046Z,35.70
2023-05-13T15:20:10.486Z,35.40
2023-05-13T15:22:38.991Z,34.10
2023-05-13T15:25:09.729Z,32.60
2023-05-13T15:27:38.372Z,31.20
2023-05-13T15:30:09.078Z,30.00
2023-05-13T15:32:37.639Z,28.90
2023-05-13T15:35:07.052Z,27.90
2023-05-13T15:37:35.554Z,27.10
2023-05-13T15:40:05.051Z,26.40
2023-05-13T15:42:34.948Z,25.70
2023-05-13T15:45:03.800Z,25.10
2023-05-13T15:47:32.950Z,24.60
2023-05-13T15:50:01.459Z,24.10
2023-05-13T15:52:30.905Z,23.80
2023-05-13T15:54:59.667Z,23.60
2023-05-13T15:57:28.432Z,23.60
2023-05-13T15:59:59.527Z,23.70
2023-05-13T16:02:29.730Z,23.80
2023-05-13T16:04:58.845Z,23.90
2023-05-13T16:07:31.279Z,23.90
2023-05-13T16:09:59.789Z,23.70
2023-05-13T16:12:31.166Z,23.50
2023-05-13T16:15:03.960Z,23.30
2023-05-13T16:17:33.428Z,23.30
2023-05-13T16:20:02.179Z,23.40
2023-05-13T16:22:33.498Z,23.70
2023-05-13T16:25:04.739Z,23.80
2023-05-13T16:27:34.085Z,23.80
2023-05-13T16:30:05.754Z,23.70
2023-05-13T16:32:35.076Z,23.70
2023-05-13T16:35:04.363Z,23.70
2023-05-13T16:37:34.700Z,23.80
2023-05-13T16:40:03.489Z,24.00
2023-05-13T16:42:32.118Z,24.10
2023-05-13T16:45:06.081Z,24.10
2023-05-13T16:47:35.113Z,24.10
2023-05-13T16:50:08.918Z,24.30
2023-05-13T16:52:37.871Z,24.50
2023-05-13T16:55:09.440Z,24.80
2023-05-13T16:57:37.976Z,25.40
2023-05-13T17:00:09.359Z,26.10
2023-05-13T17:02:38.722Z,26.50
2023-05-13T17:05:07.943Z,26.80
2023-05-13T17:07:36.648Z,26.90
2023-05-13T17:10:06.061Z,26.80
2023-05-13T17:12:34.547Z,26.60
2023-05-13T17:15:04.098Z,26.20
2023-05-13T17:17:34.519Z,25.80
2023-05-13T17:20:03.230Z,25.70
2023-05-13T17:22:49.922Z,25.50
2023-05-13T17:25:22.046Z,25.50
2023-05-13T17:27:50.556Z,25.80
2023-05-13T17:30:19.010Z,26.30
2023-05-13T17:32:48.851Z,26.90
2023-05-13T17:35:17.408Z,27.60
2023-05-13T17:37:46.150Z,28.10
2023-05-13T17:40:15.134Z,28.70
2023-05-13T17:42:44.278Z,29.00
2023-05-13T17:45:15.375Z,29.20
2023-05-13T17:47:48.480Z,28.90
2023-05-13T17:50:18.365Z,28.20
2023-05-13T17:52:47.165Z,27.30
2023-05-13T17:55:15.787Z,26.20
2023-05-13T17:57:45.747Z,25.10
2023-05-13T18:00:15.455Z,24.10
2023-05-13T18:02:43.977Z,23.40
2023-05-13T18:05:14.333Z,22.70
2023-05-13T18:07:42.988Z,22.20
2023-05-13T18:10:12.091Z,21.70
2023-05-13T18:12:40.916Z,21.30
2023-05-13T18:15:10.057Z,21.00
2023-05-13T18:17:39.014Z,20.70
2023-05-13T18:20:09.342Z,20.50
2023-05-13T18:22:39.925Z,20.30
2023-05-13T18:25:10.283Z,20.20
2023-05-13T18:27:39.090Z,20.00
2023-05-13T18:30:08.873Z,19.70
2023-05-13T18:32:37.505Z,19.50
2023-05-13T18:35:06.884Z,19.30
2023-05-13T18:37:35.556Z,19.10
2023-05-13T18:40:06.328Z,18.80
2023-05-13T18:42:37.996Z,18.60
2023-05-13T18:45:08.149Z,18.40
2023-05-13T18:47:36.728Z,18.20
2023-05-13T18:50:06.683Z,18.00
2023-05-13T18:52:35.256Z,17.80
2023-05-13T18:55:06.679Z,17.60
2023-05-13T18:57:35.273Z,17.40
2023-05-13T19:00:04.462Z,17.20
2023-05-13T19:02:33.923Z,17.00
2023-05-13T19:05:02.838Z,16.90
2023-05-13T19:07:31.474Z,16.80
2023-05-13T19:10:09.449Z,16.60
2023-05-13T19:12:38.472Z,16.50
2023-05-13T19:15:07.932Z,16.30
2023-05-13T19:17:40.333Z,16.20
2023-05-13T19:20:11.874Z,16.00
2023-05-13T19:22:41.270Z,15.80
2023-05-13T19:25:12.714Z,15.70
2023-05-13T19:27:41.868Z,15.60
2023-05-13T19:30:11.690Z,15.40
2023-05-13T19:32:40.370Z,15.30
2023-05-13T19:35:10.004Z,15.20
2023-05-13T19:37:39.245Z,15.10
2023-05-13T19:40:08.926Z,15.00
2023-05-13T19:42:41.850Z,14.90
2023-05-13T19:45:11.680Z,14.90
2023-05-13T19:47:40.709Z,14.80
2023-05-13T19:50:10.866Z,14.90
2023-05-13T19:52:40.832Z,14.90
2023-05-13T19:55:11.319Z,14.90
2023-05-13T19:57:42.701Z,15.00
2023-05-13T20:00:13.590Z,14.90
2023-05-13T20:02:42.879Z,15.00
2023-05-13T20:05:14.122Z,15.00
2023-05-13T20:07:42.656Z,15.00
2023-05-13T20:10:12.792Z,15.10
2023-05-13T20:12:43.148Z,15.10
2023-05-13T20:15:12.418Z,15.10
2023-05-13T20:17:41.884Z,15.10
2023-05-13T20:20:11.068Z,15.10
2023-05-13T20:22:40.751Z,15.10
2023-05-13T20:25:10.511Z,15.10
2023-05-13T20:27:39.675Z,15.10
2023-05-13T20:30:13.926Z,15.00
2023-05-13T20:32:42.737Z,15.00
2023-05-13T20:35:11.945Z,15.00
2023-05-13T20:37:40.790Z,15.00
2023-05-13T20:40:10.362Z,15.00
2023-05-13T20:42:39.165Z,15.00
2023-05-13T20:45:10.593Z,15.10
2023-05-13T20:47:39.198Z,15.10
2023-05-13T20:50:08.841Z,15.00
2023-05-13T20:52:37.642Z,15.10
2023-05-13T20:55:07.412Z,15.10
2023-05-13T20:57:35.965Z,15.00
2023-05-13T21:00:05.412Z,15.10
2023-05-13T21:02:36.795Z,15.00
2023-05-13T21:05:05.680Z,15.10
2023-05-13T21:07:36.297Z,15.00
2023-05-13T21:10:05.631Z,15.00
2023-05-13T21:12:34.491Z,15.00
2023-05-13T21:15:02.910Z,14.90
2023-05-13T21:17:31.660Z,14.90
2023-05-13T21:20:01.652Z,14.90
2023-05-13T21:22:31.799Z,14.80
2023-05-13T21:25:00.417Z,14.80
2023-05-13T21:27:29.209Z,14.80
2023-05-13T21:29:59.560Z,14.70
2023-05-13T21:32:28.289Z,14.70
2023-05-13T21:34:57.107Z,14.80
2023-05-13T21:37:27.418Z,14.80
2023-05-13T21:39:56.411Z,14.80
2023-05-13T21:42:25.419Z,14.80
2023-05-13T21:44:54.178Z,14.80
2023-05-13T21:47:22.740Z,14.80
2023-05-13T21:49:51.273Z,14.80
2023-05-13T21:52:20.011Z,14.70
2023-05-13T21:54:49.999Z,14.70
2023-05-13T21:57:18.569Z,14.60
2023-05-13T21:59:47.266Z,14.60
2023-05-13T22:02:16.850Z,14.50
2023-05-13T22:04:45.359Z,14.50
2023-05-13T22:07:15.047Z,14.40
2023-05-13T22:09:44.642Z,14.30
2023-05-13T22:12:14.806Z,14.30
2023-05-13T22:14:43.535Z,14.20
2023-05-13T22:17:12.176Z,14.10
2023-05-13T22:19:41.084Z,13.90
2023-05-13T22:22:09.604Z,13.80
2023-05-13T22:24:38.741Z,13.70
2023-05-13T22:27:07.565Z,13.60
2023-05-13T22:29:37.357Z,13.60
2023-05-13T22:32:06.561Z,13.40
2023-05-13T22:34:35.291Z,13.40
2023-05-13T22:37:04.139Z,13.30
2023-05-13T22:39:34.849Z,13.30
2023-05-13T22:42:03.602Z,13.20
2023-05-13T22:44:32.849Z,13.20
2023-05-13T22:47:02.721Z,13.20
2023-05-13T22:49:31.028Z,13.10
2023-05-13T22:51:59.473Z,13.10
2023-05-13T22:54:28.220Z,13.00
2023-05-13T22:56:56.618Z,13.00
2023-05-13T22:59:25.386Z,13.00
2023-05-13T23:01:53.862Z,12.90
2023-05-13T23:04:24.349Z,12.90
2023-05-13T23:06:52.955Z,12.80
2023-05-13T23:09:21.563Z,12.70
2023-05-13T23:11:49.840Z,12.60
2023-05-13T23:14:18.537Z,12.50
2023-05-13T23:16:46.877Z,12.40
2023-05-13T23:19:15.191Z,12.30
2023-05-13T23:21:45.127Z,12.20
2023-05-13T23:24:13.566Z,12.20
2023-05-13T23:26:46.454Z,12.10
2023-05-13T23:29:15.747Z,12.00
2023-05-13T23:31:44.110Z,12.00
2023-05-13T23:34:12.428Z,11.90
2023-05-13T23:36:40.898Z,11.90
2023-05-13T23:39:10.637Z,11.80
2023-05-13T23:41:38.912Z,11.70
2023-05-13T23:44:07.324Z,11.60
2023-05-13T23:46:35.766Z,11.50
2023-05-13T23:49:04.425Z,11.50
2023-05-13T23:51:33.252Z,11.40
2023-05-13T23:54:01.719Z,11.30
2023-05-13T23:56:31.704Z,11.20
2023-05-13T23:59:00.176Z,11.10
